Time;durP1;ratioP1;P1;durP2;ratioP2;P2;SDS_P1;SDS_P2;PMS_P1;PMS_P2;Temp;Humidity;BMP_temperature;BMP_pressure;BME280_temperature;BME280_humidity;BME280_pressure;Samples;Min_cycle;Max_cycle;Signal;HPM_P1;HPM_P2
2023/06/22 00:01:28;;;;;;;;;0.00;0.00;;;;;23.31;73.99;100286.53;5056130;28;45513;-79
2023/06/22 00:03:53;;;;;;;;;0.00;0.00;;;;;23.34;73.92;100281.13;5050087;28;45557;-79
2023/06/22 00:06:19;;;;;;;;;0.00;0.00;;;;;23.37;73.55;100290.81;5057654;28;45486;-79
2023/06/22 00:08:44;;;;;;;;;0.00;0.00;;;;;23.28;73.72;100267.06;5044075;28;45558;-79
2023/06/22 00:11:10;;;;;;;;;0.00;0.00;;;;;23.44;73.24;100292.41;5058627;28;45781;-79
2023/06/22 00:13:36;;;;;;;;;1.33;0.00;;;;;23.41;73.62;100300.50;5059374;28;45359;-78
2023/06/22 00:16:01;;;;;;;;;0.00;0.00;;;;;23.30;73.59;100266.13;5058810;28;45949;-79
2023/06/22 00:18:27;;;;;;;;;0.00;0.00;;;;;23.51;74.00;100291.31;5050283;28;45406;-80
2023/06/22 00:20:57;;;;;;;;;0.00;0.00;;;;;23.40;73.99;100266.75;5053891;28;45461;-79
2023/06/22 00:23:23;;;;;;;;;0.00;0.00;;;;;23.57;73.17;100271.63;5053913;28;45465;-78
2023/06/22 00:25:49;;;;;;;;;0.00;0.00;;;;;23.51;74.05;100293.97;5045354;28;45524;-80
2023/06/22 00:28:15;;;;;;;;;0.00;0.00;;;;;23.55;74.06;100292.13;5044175;28;45419;-79
2023/06/22 00:30:40;;;;;;;;;2.00;1.00;;;;;23.46;73.76;100271.03;5059297;28;45389;-79
2023/06/22 00:33:07;;;;;;;;;1.00;0.67;;;;;23.43;73.40;100242.66;5058132;28;45635;-79
2023/06/22 00:35:33;;;;;;;;;0.67;0.67;;;;;23.52;73.39;100261.09;5042933;28;47973;-79
2023/06/22 00:38:00;;;;;;;;;1.00;1.00;;;;;23.58;73.93;100287.56;5044739;28;45809;-80
2023/06/22 00:40:33;;;;;;;;;1.33;1.33;;;;;23.60;73.75;100290.22;5058272;28;45715;-80
2023/06/22 00:42:59;;;;;;;;;2.00;2.00;;;;;23.59;74.02;100281.31;5056111;28;45477;-79
2023/06/22 00:45:25;;;;;;;;;2.67;2.00;;;;;23.49;73.88;100281.63;5057319;28;46163;-80
2023/06/22 00:47:57;;;;;;;;;2.33;2.33;;;;;23.47;74.02;100280.78;5057821;28;45378;-80
2023/06/22 00:50:24;;;;;;;;;1.33;1.33;;;;;23.56;74.61;100305.41;5042452;28;45324;-81
2023/06/22 00:52:58;;;;;;;;;2.00;2.00;;;;;23.43;74.09;100283.53;5025771;28;46120;-80
2023/06/22 00:55:25;;;;;;;;;3.00;2.00;;;;;23.52;73.69;100302.88;5058662;28;46307;-80
2023/06/22 00:57:55;;;;;;;;;1.00;1.00;;;;;23.54;74.08;100301.03;5058514;28;45534;-81
2023/06/22 01:00:24;;;;;;;;;3.00;2.67;;;;;23.52;74.59;100311.75;5057941;28;45288;-81
2023/06/22 01:02:54;;;;;;;;;3.00;2.00;;;;;23.49;74.10;100293.16;5045480;28;45522;-80
2023/06/22 01:05:21;;;;;;;;;2.00;2.00;;;;;23.47;74.48;100300.31;5058310;28;46281;-81
2023/06/22 01:08:03;;;;;;;;;2.67;2.33;;;;;23.53;74.02;100325.94;5058315;28;45415;-80
2023/06/22 01:10:51;;;;;;;;;3.00;2.00;;;;;23.50;74.57;100326.03;5058464;28;46015;-79
2023/06/22 01:13:29;;;;;;;;;2.33;1.67;;;;;23.40;74.06;100293.41;5023227;28;45467;-80
2023/06/22 01:16:09;;;;;;;;;1.00;1.00;;;;;23.33;74.67;100289.16;5058738;28;45408;-80
2023/06/22 01:18:40;;;;;;;;;2.00;2.00;;;;;23.33;73.32;100295.34;5057778;28;45456;-80
2023/06/22 01:21:08;;;;;;;;;1.00;1.00;;;;;23.29;74.01;100300.81;5057774;28;45422;-80
2023/06/22 01:24:19;;;;;;;;;2.00;1.00;;;;;23.36;73.81;100310.41;5040044;28;45612;-80
2023/06/22 01:27:26;;;;;;;;;1.67;1.00;;;;;23.32;74.35;100316.75;5057955;28;45514;-77
2023/06/22 01:30:05;;;;;;;;;1.00;1.00;;;;;23.29;74.31;100301.69;5023546;28;45558;-80
2023/06/22 01:32:33;;;;;;;;;1.33;1.00;;;;;23.25;73.22;100289.34;5042586;28;45474;-79
2023/06/22 01:35:01;;;;;;;;;1.00;1.00;;;;;23.31;73.98;100317.66;5040367;28;45447;-80
2023/06/22 01:37:31;;;;;;;;;2.33;1.33;;;;;23.18;74.36;100315.31;5057911;28;45425;-80
2023/06/22 01:39:58;;;;;;;;;1.00;1.00;;;;;23.24;73.70;100319.59;5057532;28;45549;-80
2023/06/22 01:42:25;;;;;;;;;1.00;1.00;;;;;23.28;73.79;100323.94;5057285;28;45549;-81
2023/06/22 01:44:53;;;;;;;;;2.00;1.33;;;;;23.17;73.17;100310.88;5053054;28;45410;-80
2023/06/22 01:47:20;;;;;;;;;2.00;2.00;;;;;22.90;73.96;100271.59;5050997;28;46110;-80
2023/06/22 01:49:46;;;;;;;;;1.00;1.00;;;;;23.17;74.16;100331.31;5038838;28;47085;-80
2023/06/22 01:52:12;;;;;;;;;1.67;1.00;;;;;23.22;73.50;100335.63;5056851;28;45620;-81
2023/06/22 01:54:40;;;;;;;;;2.67;2.00;;;;;23.21;73.44;100341.84;5038521;28;45347;-80
2023/06/22 01:57:06;;;;;;;;;2.00;1.67;;;;;23.22;74.15;100346.28;5057859;28;46430;-80
2023/06/22 02:00:02;;;;;;;;;2.00;1.00;;;;;23.24;73.55;100346.25;5057658;28;45480;-80
2023/06/22 02:02:48;;;;;;;;;2.00;2.00;;;;;22.96;73.79;100330.03;5035870;28;45462;-80
2023/06/22 02:05:17;;;;;;;;;1.67;1.67;;;;;22.71;74.04;100332.41;5057693;28;45557;-80
2023/06/22 02:07:49;;;;;;;;;1.00;1.00;;;;;22.92;75.26;100360.31;5057303;28;45644;-80
2023/06/22 02:10:19;;;;;;;;;3.00;2.67;;;;;22.94;73.69;100353.16;5038663;28;45848;-80
2023/06/22 02:12:47;;;;;;;;;2.00;1.00;;;;;22.94;73.83;100358.50;5057512;28;45485;-79
2023/06/22 02:15:14;;;;;;;;;1.00;1.00;;;;;22.99;74.59;100356.59;5053060;28;45541;-80
2023/06/22 02:17:45;;;;;;;;;1.00;1.00;;;;;23.06;74.15;100371.56;5050501;28;45724;-79
2023/06/22 02:20:16;;;;;;;;;1.67;1.67;;;;;23.11;73.60;100372.31;5038903;28;45498;-80
2023/06/22 02:22:42;;;;;;;;;1.00;1.00;;;;;23.13;74.01;100374.94;5057134;28;45474;-79
2023/06/22 02:25:08;;;;;;;;;1.00;1.00;;;;;22.99;74.57;100378.78;5037869;28;45372;-80
2023/06/22 02:27:33;;;;;;;;;1.00;1.00;;;;;23.10;73.89;100364.34;5056561;28;46073;-80
2023/06/22 02:29:59;;;;;;;;;2.00;1.33;;;;;23.16;73.76;100365.09;5056668;28;45783;-80
2023/06/22 02:32:24;;;;;;;;;3.00;2.00;;;;;23.09;73.16;100347.50;5055904;28;45580;-80
2023/06/22 02:34:50;;;;;;;;;2.00;2.00;;;;;23.13;73.42;100362.50;5038920;28;45570;-80
2023/06/22 02:37:16;;;;;;;;;1.00;1.00;;;;;23.16;72.72;100369.56;5056494;28;45668;-80
2023/06/22 02:39:42;;;;;;;;;1.00;1.00;;;;;23.16;72.36;100358.91;5072153;28;45638;-80
2023/06/22 02:42:07;;;;;;;;;2.00;1.00;;;;;23.18;72.58;100376.59;5038991;28;45181;-79
2023/06/22 02:44:33;;;;;;;;;1.33;1.00;;;;;23.07;73.26;100362.66;5056969;28;45427;-80
2023/06/22 02:46:59;;;;;;;;;2.00;1.00;;;;;23.14;73.65;100377.59;5026316;28;46383;-79
2023/06/22 02:49:24;;;;;;;;;1.00;1.00;;;;;23.16;73.28;100381.09;5056274;28;45513;-79
2023/06/22 02:51:50;;;;;;;;;2.00;1.00;;;;;23.17;73.33;100376.63;5038915;28;45437;-79
2023/06/22 02:54:16;;;;;;;;;3.00;1.33;;;;;23.03;73.68;100364.50;5056732;28;45481;-79
2023/06/22 02:56:43;;;;;;;;;2.00;1.33;;;;;22.95;74.53;100365.59;5056699;28;46075;-80
2023/06/22 02:59:10;;;;;;;;;1.67;1.00;;;;;22.98;74.64;100368.19;5053788;28;45593;-79
2023/06/22 03:01:39;;;;;;;;;2.33;1.67;;;;;23.13;74.35;100381.16;5038343;28;45490;-80
2023/06/22 03:04:11;;;;;;;;;1.00;1.00;;;;;23.09;74.32;100384.81;5039037;28;45564;-79
2023/06/22 03:06:36;;;;;;;;;1.33;1.00;;;;;22.96;74.30;100362.00;5028516;28;46801;-80
2023/06/22 03:09:04;;;;;;;;;1.00;1.00;;;;;23.00;74.05;100369.91;5038341;28;45420;-80
2023/06/22 03:11:31;;;;;;;;;2.00;2.00;;;;;23.05;74.04;100368.94;5038819;28;45534;-80
2023/06/22 03:13:56;;;;;;;;;1.00;1.00;;;;;22.99;73.63;100372.59;5056752;28;45337;-80
2023/06/22 03:16:22;;;;;;;;;0.67;0.00;;;;;23.13;73.81;100390.94;5056442;28;45489;-80
2023/06/22 03:18:47;;;;;;;;;1.33;1.00;;;;;23.06;74.17;100387.56;5040444;28;47124;-81
2023/06/22 03:21:15;;;;;;;;;1.00;1.00;;;;;22.98;74.28;100378.84;5056606;28;45352;-80
2023/06/22 03:23:41;;;;;;;;;1.33;1.33;;;;;22.90;74.13;100362.13;5056808;28;45426;-80
2023/06/22 03:26:07;;;;;;;;;1.00;1.00;;;;;22.90;73.86;100368.38;5056233;28;45397;-79
2023/06/22 03:28:32;;;;;;;;;0.00;0.00;;;;;22.94;74.25;100372.72;5055842;28;45526;-80
2023/06/22 03:30:58;;;;;;;;;1.67;1.67;;;;;22.96;74.55;100378.88;5055470;28;45510;-80
2023/06/22 03:33:24;;;;;;;;;1.00;1.00;;;;;22.96;73.81;100383.31;5055429;28;45607;-80
2023/06/22 03:35:49;;;;;;;;;1.00;1.00;;;;;22.96;74.34;100389.53;5034561;28;46959;-80
2023/06/22 03:38:16;;;;;;;;;1.00;1.00;;;;;23.05;74.73;100403.56;5041212;28;45958;-80
2023/06/22 03:40:42;;;;;;;;;1.33;1.33;;;;;22.80;74.30;100383.69;5059612;28;45559;-80
2023/06/22 03:43:08;;;;;;;;;1.00;0.67;;;;;23.10;73.74;100405.22;5059401;28;45522;-80
2023/06/22 03:45:34;;;;;;;;;1.00;1.00;;;;;22.96;74.59;100402.84;5057699;28;45525;-81
2023/06/22 03:48:00;;;;;;;;;2.00;2.00;;;;;23.00;74.00;100396.53;5059016;28;45398;-81
2023/06/22 03:50:26;;;;;;;;;2.67;2.00;;;;;22.80;74.73;100390.78;5059716;28;45436;-80
2023/06/22 03:52:52;;;;;;;;;1.00;1.00;;;;;22.83;74.88;100399.56;5059581;28;45620;-80
2023/06/22 03:55:19;;;;;;;;;1.67;1.67;;;;;22.84;74.61;100401.34;5041216;28;45807;-79
2023/06/22 03:57:45;;;;;;;;;2.00;2.00;;;;;22.86;74.98;100408.41;5058639;28;45371;-79
2023/06/22 04:00:11;;;;;;;;;2.00;1.00;;;;;22.89;75.11;100419.88;5058390;28;45290;-79
2023/06/22 04:02:37;;;;;;;;;2.67;2.00;;;;;22.68;74.29;100385.72;5055158;28;45786;-80
2023/06/22 04:05:02;;;;;;;;;2.33;2.00;;;;;22.79;74.78;100405.00;5030364;28;45662;-80
2023/06/22 04:07:28;;;;;;;;;4.00;3.00;;;;;22.84;75.41;100416.47;5059052;28;45657;-80
2023/06/22 04:09:53;;;;;;;;;2.00;2.00;;;;;22.76;74.47;100405.97;5059501;28;45588;-80
2023/06/22 04:12:19;;;;;;;;;2.00;2.00;;;;;22.74;74.43;100399.81;5037832;28;45574;-79
2023/06/22 04:14:44;;;;;;;;;2.00;2.00;;;;;22.84;74.90;100419.97;5046586;28;46123;-79
2023/06/22 04:17:10;;;;;;;;;2.00;2.00;;;;;22.71;75.62;100413.16;5059015;28;45534;-79
2023/06/22 04:19:35;;;;;;;;;3.00;2.00;;;;;22.66;75.55;100399.09;5059486;28;45212;-80
2023/06/22 04:22:01;;;;;;;;;2.00;2.00;;;;;22.75;74.93;100417.53;5058997;28;45302;-80
2023/06/22 04:24:26;;;;;;;;;2.00;2.00;;;;;22.82;75.24;100432.47;5054110;28;47830;-80
2023/06/22 04:26:54;;;;;;;;;1.67;1.67;;;;;22.78;75.27;100441.44;5050126;28;45411;-80
2023/06/22 04:29:29;;;;;;;;;2.00;2.00;;;;;22.80;75.48;100452.94;5059294;28;45528;-79
2023/06/22 04:31:58;;;;;;;;;3.00;2.00;;;;;22.83;74.77;100447.50;5042379;28;45557;-79
2023/06/22 04:34:27;;;;;;;;;3.00;3.00;;;;;22.89;74.99;100456.28;5042900;28;46086;-78
2023/06/22 04:36:53;;;;;;;;;2.00;2.00;;;;;22.76;74.57;100429.03;5047445;28;45506;-79
2023/06/22 04:39:18;;;;;;;;;2.00;2.00;;;;;22.87;74.72;100460.78;5041033;28;45574;-79
2023/06/22 04:41:44;;;;;;;;;2.00;2.00;;;;;22.89;74.85;100456.28;5040018;28;45514;-79
2023/06/22 04:44:24;;;;;;;;;4.33;4.00;;;;;22.91;73.74;100426.03;5056143;28;46695;-79
2023/06/22 04:47:08;;;;;;;;;1.00;1.00;;;;;22.86;73.79;100437.69;5058090;28;45547;-78
2023/06/22 04:49:37;;;;;;;;;3.00;3.00;;;;;22.87;73.84;100453.66;5055351;28;45389;-79
2023/06/22 04:52:08;;;;;;;;;3.00;3.00;;;;;22.69;73.92;100444.28;5038269;28;45556;-79
2023/06/22 04:54:35;;;;;;;;;3.33;3.33;;;;;22.73;74.63;100477.06;5040189;28;45760;-78
2023/06/22 04:57:01;;;;;;;;;4.00;4.00;;;;;22.79;74.04;100474.25;5040856;28;45439;-79
2023/06/22 04:59:29;;;;;;;;;2.00;2.00;;;;;22.93;73.93;100480.16;5056909;28;45414;-79
2023/06/22 05:02:00;;;;;;;;;4.00;4.00;;;;;22.78;74.30;100470.72;5057570;28;45611;-79
2023/06/22 05:04:35;;;;;;;;;3.00;3.00;;;;;22.76;73.99;100477.88;5057805;28;45497;-79
2023/06/22 05:07:01;;;;;;;;;3.00;1.67;;;;;22.80;73.78;100482.22;5057376;28;45362;-79
2023/06/22 05:09:27;;;;;;;;;4.00;4.00;;;;;22.70;74.03;100466.47;5053879;28;45478;-79
2023/06/22 05:11:53;;;;;;;;;4.00;3.00;;;;;22.81;74.00;100478.63;5048818;28;45438;-79
2023/06/22 05:14:19;;;;;;;;;5.00;4.00;;;;;22.74;74.29;100469.03;5039242;28;45554;-79
2023/06/22 05:16:45;;;;;;;;;3.67;3.00;;;;;22.82;73.82;100485.72;5057595;28;45398;-79
2023/06/22 05:19:11;;;;;;;;;4.00;3.33;;;;;22.82;73.02;100484.88;5058552;28;45547;-79
2023/06/22 05:21:37;;;;;;;;;2.00;2.00;;;;;22.86;73.02;100483.88;5040032;28;45574;-79
2023/06/22 05:24:03;;;;;;;;;2.67;2.33;;;;;22.67;73.16;100471.88;5057442;28;46017;-79
2023/06/22 05:26:30;;;;;;;;;3.33;3.00;;;;;22.98;73.04;100499.59;5057772;28;45686;-79
2023/06/22 05:28:56;;;;;;;;;6.33;4.33;;;;;22.79;73.23;100484.91;5035752;28;45335;-79
2023/06/22 05:31:22;;;;;;;;;4.00;3.00;;;;;22.93;72.90;100509.47;5047638;28;45229;-79
2023/06/22 05:33:49;;;;;;;;;5.00;2.00;;;;;22.92;72.76;100510.38;5057027;28;46091;-79
2023/06/22 05:36:15;;;;;;;;;3.33;3.00;;;;;22.85;73.17;100514.06;5056331;28;45640;-79
2023/06/22 05:38:41;;;;;;;;;2.33;2.33;;;;;22.92;73.40;100523.69;5056438;28;45513;-79
2023/06/22 05:41:08;;;;;;;;;3.00;3.00;;;;;22.89;74.00;100512.22;5039395;28;45430;-79
2023/06/22 05:43:33;;;;;;;;;3.00;3.00;;;;;22.82;73.55;100490.19;5039193;28;46915;-79
2023/06/22 05:46:01;;;;;;;;;3.00;3.00;;;;;22.96;73.36;100525.38;5039462;28;45341;-80
2023/06/22 05:48:27;;;;;;;;;3.00;3.00;;;;;22.83;73.10;100506.09;5022626;28;45641;-79
2023/06/22 05:50:53;;;;;;;;;3.00;3.00;;;;;22.82;73.48;100503.50;5057364;28;45491;-79
2023/06/22 05:53:19;;;;;;;;;4.00;3.00;;;;;22.99;73.18;100525.31;5039216;28;48051;-79
2023/06/22 05:55:44;;;;;;;;;3.00;3.00;;;;;22.92;72.98;100517.47;5039353;28;45592;-79
2023/06/22 05:58:10;;;;;;;;;4.00;3.00;;;;;22.93;73.25;100514.78;5057246;28;45520;-80
2023/06/22 06:00:36;;;;;;;;;2.00;2.00;;;;;23.14;72.51;100544.56;5057498;28;45347;-80
2023/06/22 06:03:03;;;;;;;;;2.00;2.00;;;;;23.00;72.08;100515.56;5056837;28;45548;-80
2023/06/22 06:05:33;;;;;;;;;5.00;4.00;;;;;23.23;71.80;100547.91;5056911;28;45487;-80
2023/06/22 06:08:00;;;;;;;;;3.67;3.67;;;;;23.16;71.80;100543.63;5032754;28;45470;-80
2023/06/22 06:10:25;;;;;;;;;4.00;4.00;;;;;23.25;72.42;100552.34;5039099;28;45572;-80
2023/06/22 06:12:51;;;;;;;;;3.33;3.00;;;;;23.26;71.92;100559.41;5056381;28;45380;-80
2023/06/22 06:15:17;;;;;;;;;5.33;4.67;;;;;23.17;72.30;100544.50;5056530;28;45551;-79
2023/06/22 06:17:51;;;;;;;;;6.00;5.00;;;;;23.23;72.09;100558.56;5055970;28;45537;-80
2023/06/22 06:20:25;;;;;;;;;6.67;5.67;;;;;22.86;72.12;100528.25;5041089;28;45472;-79
2023/06/22 06:22:50;;;;;;;;;3.00;3.00;;;;;23.00;72.65;100560.84;5041731;28;45488;-80
2023/06/22 06:25:17;;;;;;;;;6.00;5.00;;;;;22.90;72.98;100568.13;5038488;28;45490;-79
2023/06/22 06:27:43;;;;;;;;;5.67;5.00;;;;;22.88;73.88;100583.28;5039134;28;45401;-80
2023/06/22 06:30:10;;;;;;;;;4.33;4.00;;;;;22.68;73.96;100566.78;5038577;28;45514;-80
2023/06/22 06:32:36;;;;;;;;;4.00;3.00;;;;;22.61;74.34;100571.38;5056703;28;45419;-79
2023/06/22 06:35:01;;;;;;;;;4.00;3.00;;;;;22.78;73.59;100577.25;5056436;28;45379;-80
2023/06/22 06:37:27;;;;;;;;;3.00;3.00;;;;;22.63;72.98;100545.59;5056440;28;45562;-80
2023/06/22 06:39:53;;;;;;;;;4.67;4.00;;;;;22.73;73.64;100584.44;5056158;28;45470;-78
2023/06/22 06:42:19;;;;;;;;;4.00;2.67;;;;;22.48;73.21;100546.75;5056276;28;46076;-80
2023/06/22 06:44:45;;;;;;;;;4.00;4.00;;;;;22.60;73.63;100581.16;5057067;28;45755;-80
2023/06/22 06:47:11;;;;;;;;;3.00;3.00;;;;;22.58;73.50;100585.63;5056469;28;45386;-80
2023/06/22 06:49:36;;;;;;;;;3.00;3.00;;;;;22.47;73.22;100570.78;5055016;28;45555;-79
2023/06/22 06:52:02;;;;;;;;;2.67;2.67;;;;;22.56;73.16;100591.88;5045935;28;48149;-79
2023/06/22 06:54:27;;;;;;;;;4.00;3.00;;;;;22.48;73.26;100581.34;5056271;28;45435;-79
2023/06/22 06:56:53;;;;;;;;;5.00;4.00;;;;;22.58;74.03;100612.25;5044822;28;45371;-79
2023/06/22 06:59:18;;;;;;;;;5.67;4.00;;;;;22.44;73.82;100591.22;5041886;28;45368;-80
2023/06/22 07:01:44;;;;;;;;;6.33;6.00;;;;;22.59;74.16;100611.34;5051987;28;45645;-79
2023/06/22 07:04:10;;;;;;;;;3.00;3.00;;;;;22.56;73.84;100599.84;5038533;28;45450;-79
2023/06/22 07:06:36;;;;;;;;;4.00;4.00;;;;;22.70;73.33;100608.50;5037583;28;45594;-79
2023/06/22 07:09:01;;;;;;;;;3.00;3.00;;;;;22.71;72.93;100599.56;5046593;28;45550;-79
2023/06/22 07:11:27;;;;;;;;;5.00;5.00;;;;;22.68;72.61;100591.66;5054282;28;46251;-78
2023/06/22 07:13:53;;;;;;;;;4.00;4.00;;;;;22.84;72.56;100598.44;5058774;28;45502;-78
2023/06/22 07:16:18;;;;;;;;;4.00;4.00;;;;;22.89;72.54;100601.00;5055469;28;45619;-78
2023/06/22 07:18:44;;;;;;;;;4.67;4.67;;;;;23.00;71.96;100601.66;5039932;28;45556;-78
2023/06/22 07:21:09;;;;;;;;;4.33;4.00;;;;;23.08;71.44;100617.53;5042644;28;47496;-78
2023/06/22 07:23:35;;;;;;;;;4.67;4.67;;;;;23.16;71.36;100604.94;5055617;28;45535;-79
2023/06/22 07:26:06;;;;;;;;;5.00;5.00;;;;;23.46;70.37;100625.59;5046442;28;45541;-83
2023/06/22 07:28:36;;;;;;;;;3.00;3.00;;;;;23.54;70.40;100605.00;5044366;28;45518;-79
2023/06/22 07:31:03;;;;;;;;;7.00;5.00;;;;;23.85;69.16;100594.50;5046031;28;47057;-80
2023/06/22 07:33:28;;;;;;;;;3.00;3.00;;;;;24.59;68.10;100630.03;5055846;28;45351;-79
2023/06/22 07:35:54;;;;;;;;;4.00;3.33;;;;;24.73;66.95;100610.97;5054358;28;45474;-80
2023/06/22 07:38:19;;;;;;;;;6.00;5.00;;;;;24.89;66.96;100630.13;5038687;28;45477;-79
2023/06/22 07:40:45;;;;;;;;;4.00;4.00;;;;;24.88;67.37;100615.03;5056443;28;46148;-79
2023/06/22 07:43:11;;;;;;;;;4.33;4.33;;;;;24.92;66.58;100622.03;5038323;28;45321;-81
2023/06/22 07:45:39;;;;;;;;;3.33;2.00;;;;;25.05;66.09;100626.13;5056289;28;45362;-79
2023/06/22 07:48:05;;;;;;;;;5.67;5.00;;;;;25.11;66.25;100636.63;5056402;28;45439;-79
2023/06/22 07:50:31;;;;;;;;;3.00;3.00;;;;;24.82;65.95;100624.06;5055982;28;45429;-78
2023/06/22 07:52:56;;;;;;;;;6.00;5.00;;;;;24.70;66.11;100611.06;5057923;28;46077;-78
2023/06/22 07:55:22;;;;;;;;;5.00;5.00;;;;;24.72;66.20;100623.44;5056154;28;45753;-77
2023/06/22 07:57:51;;;;;;;;;5.67;4.33;;;;;24.76;65.97;100627.78;5056421;28;45470;-77
2023/06/22 08:00:17;;;;;;;;;6.67;6.33;;;;;24.82;67.23;100664.16;5055550;28;46213;-78
2023/06/22 08:02:46;;;;;;;;;6.00;5.00;;;;;24.71;67.07;100613.69;5053062;28;45317;-79
2023/06/22 08:05:14;;;;;;;;;4.33;4.33;;;;;25.09;65.73;100665.19;5055287;28;45670;-80
2023/06/22 08:07:40;;;;;;;;;7.67;4.67;;;;;25.11;65.26;100639.31;5055325;28;45481;-79
2023/06/22 08:10:06;;;;;;;;;5.67;4.33;;;;;25.40;64.71;100661.66;5045465;28;47662;-81
2023/06/22 08:12:32;;;;;;;;;7.00;5.00;;;;;25.73;64.49;100650.88;5055318;28;45665;-78
2023/06/22 08:14:57;;;;;;;;;6.67;6.67;;;;;25.78;63.62;100635.53;5044407;28;45522;-79
2023/06/22 08:17:26;;;;;;;;;5.67;5.67;;;;;25.80;63.39;100663.13;5055242;28;45660;-80
2023/06/22 08:19:51;;;;;;;;;5.67;5.33;;;;;25.70;63.87;100665.19;5045207;28;48047;-79
2023/06/22 08:22:18;;;;;;;;;7.00;5.67;;;;;25.68;64.27;100671.53;5046501;28;45476;-79
2023/06/22 08:24:43;;;;;;;;;9.33;8.00;;;;;25.64;64.96;100683.25;5049333;28;45545;-80
2023/06/22 08:27:11;;;;;;;;;9.67;8.67;;;;;25.59;65.10;100689.59;5060455;28;45335;-78
2023/06/22 08:29:37;;;;;;;;;8.33;8.00;;;;;25.53;65.14;100688.94;5061890;28;45371;-79
2023/06/22 08:32:03;;;;;;;;;7.00;7.00;;;;;25.55;65.14;100676.38;5060122;28;45549;-79
2023/06/22 08:34:28;;;;;;;;;9.33;9.33;;;;;25.38;65.76;100672.38;5046744;28;45486;-79
2023/06/22 08:36:54;;;;;;;;;8.67;6.00;;;;;25.46;65.80;100690.88;5049727;28;45361;-79
2023/06/22 08:39:20;;;;;;;;;6.33;5.67;;;;;25.38;64.96;100695.59;5059339;28;46030;-80
2023/06/22 08:41:46;;;;;;;;;7.33;5.33;;;;;25.24;65.49;100687.97;5050412;28;45561;-80
2023/06/22 08:44:12;;;;;;;;;8.33;7.00;;;;;25.11;65.80;100679.41;5058876;28;45263;-80
2023/06/22 08:46:40;;;;;;;;;5.00;4.00;;;;;25.24;66.11;100708.47;5058010;28;45369;-80
2023/06/22 08:49:06;;;;;;;;;5.00;4.67;;;;;25.05;65.96;100708.06;5058247;28;46327;-80
2023/06/22 08:51:31;;;;;;;;;6.33;5.33;;;;;24.92;66.56;100683.50;5058178;28;45583;-80
2023/06/22 08:53:57;;;;;;;;;5.00;4.00;;;;;25.22;65.60;100716.53;5048273;28;45252;-80
2023/06/22 08:56:22;;;;;;;;;6.00;5.00;;;;;25.26;65.49;100725.34;5048615;28;45359;-79
2023/06/22 08:58:48;;;;;;;;;5.33;5.33;;;;;25.32;64.42;100722.50;5058178;28;45591;-79
2023/06/22 09:01:15;;;;;;;;;5.33;4.33;;;;;25.53;65.07;100740.63;5048400;28;45576;-79
2023/06/22 09:03:41;;;;;;;;;5.33;5.33;;;;;25.63;64.49;100737.69;5048668;28;45514;-78
2023/06/22 09:06:09;;;;;;;;;7.67;7.00;;;;;25.84;64.13;100741.50;5058074;28;45737;-78
2023/06/22 09:08:35;;;;;;;;;6.00;6.00;;;;;26.06;64.47;100737.28;5047935;28;47056;-78
2023/06/22 09:11:00;;;;;;;;;5.00;5.00;;;;;26.65;62.24;100724.72;5057721;28;45213;-79
2023/06/22 09:13:28;;;;;;;;;5.00;4.00;;;;;26.65;61.70;100714.84;5056865;28;45476;-79
2023/06/22 09:15:53;;;;;;;;;3.00;3.00;;;;;26.76;61.68;100744.84;5044631;28;45423;-79
2023/06/22 09:18:19;;;;;;;;;5.33;5.00;;;;;26.69;61.41;100750.47;5057967;28;45437;-80
2023/06/22 09:20:45;;;;;;;;;8.67;8.33;;;;;26.54;61.74;100731.28;5044874;28;45372;-79
2023/06/22 09:23:11;;;;;;;;;5.00;5.00;;;;;26.62;61.20;100752.50;5057839;28;45512;-79
2023/06/22 09:25:36;;;;;;;;;5.00;5.00;;;;;26.45;62.42;100761.03;5057857;28;45473;-79
2023/06/22 09:28:02;;;;;;;;;4.67;4.00;;;;;26.31;62.48;100748.09;5047484;28;47130;-79
2023/06/22 09:30:28;;;;;;;;;6.00;6.00;;;;;26.47;62.69;100769.91;5048178;28;45449;-79
2023/06/22 09:32:54;;;;;;;;;5.67;5.67;;;;;26.56;61.69;100763.34;5057303;28;45529;-79
2023/06/22 09:35:19;;;;;;;;;5.33;4.33;;;;;26.91;60.44;100775.59;5056894;28;45443;-79
2023/06/22 09:37:45;;;;;;;;;5.67;5.00;;;;;27.06;59.54;100784.03;5063899;28;45267;-80
2023/06/22 09:40:16;;;;;;;;;3.33;2.67;;;;;26.98;60.33;100773.59;5060714;28;45212;-78
2023/06/22 09:42:42;;;;;;;;;6.00;5.00;;;;;27.00;60.31;100771.75;5057771;28;45371;-78
2023/06/22 09:45:08;;;;;;;;;6.33;6.00;;;;;27.05;59.76;100777.81;5058577;28;45428;-79
2023/06/22 09:47:34;;;;;;;;;4.33;4.33;;;;;27.19;59.80;100798.78;5057889;28;46080;-79
2023/06/22 09:49:59;;;;;;;;;8.33;7.33;;;;;26.83;59.85;100739.28;5043002;28;45478;-77
2023/06/22 09:52:26;;;;;;;;;6.33;6.33;;;;;27.02;59.04;100761.84;5058428;28;45556;-77
2023/06/22 09:54:52;;;;;;;;;4.00;4.00;;;;;26.90;58.30;100771.19;5057299;28;45670;-78
2023/06/22 09:57:17;;;;;;;;;4.00;4.00;;;;;26.94;59.77;100799.63;5058130;28;45261;-77
2023/06/22 09:59:43;;;;;;;;;5.00;5.00;;;;;26.82;60.11;100809.88;5057573;28;45336;-77
2023/06/22 10:02:09;;;;;;;;;6.00;6.00;;;;;26.73;60.10;100809.25;5058485;28;45235;-77
2023/06/22 10:04:35;;;;;;;;;5.33;4.67;;;;;26.64;59.61;100814.94;5058582;28;45660;-78
2023/06/22 10:07:02;;;;;;;;;5.67;5.67;;;;;26.72;60.67;100815.56;5057789;28;45402;-77
2023/06/22 10:09:27;;;;;;;;;5.33;5.33;;;;;26.83;60.27;100790.22;5057931;28;45484;-77
2023/06/22 10:11:53;;;;;;;;;6.33;6.33;;;;;27.16;58.62;100823.03;5058217;28;45461;-77
2023/06/22 10:14:19;;;;;;;;;5.33;5.00;;;;;27.21;58.13;100796.06;5058431;28;45499;-78
2023/06/22 10:16:45;;;;;;;;;5.33;5.33;;;;;27.52;58.91;100825.38;5058492;28;45596;-78
2023/06/22 10:19:10;;;;;;;;;10.00;9.00;;;;;27.57;57.82;100785.81;5057940;28;45398;-77
2023/06/22 10:21:36;;;;;;;;;6.67;6.67;;;;;27.85;57.52;100796.41;5058081;28;45434;-77
2023/06/22 10:24:05;;;;;;;;;10.00;9.67;;;;;27.89;56.44;100786.47;5057972;28;45299;-78
2023/06/22 10:26:35;;;;;;;;;11.00;8.33;;;;;28.05;55.90;100813.59;5055788;28;46774;-78
2023/06/22 10:29:02;;;;;;;;;7.67;6.67;;;;;27.41;55.85;100731.00;5056856;28;45478;-78
2023/06/22 10:31:28;;;;;;;;;5.67;5.00;;;;;27.76;56.46;100807.50;5057497;28;45564;-77
2023/06/22 10:33:55;;;;;;;;;6.00;5.67;;;;;27.78;56.96;100827.09;5057624;28;45330;-78
2023/06/22 10:36:22;;;;;;;;;6.00;5.00;;;;;27.56;57.45;100817.16;5057970;28;46558;-78
2023/06/22 10:38:47;;;;;;;;;7.00;5.00;;;;;27.53;56.17;100837.84;5056381;28;46008;-78
2023/06/22 10:41:13;;;;;;;;;11.67;11.67;;;;;27.50;58.22;100824.56;5057107;28;45376;-77
2023/06/22 10:43:39;;;;;;;;;14.67;12.67;;;;;27.56;57.61;100795.69;5058020;28;45490;-77
2023/06/22 10:46:06;;;;;;;;;7.00;6.00;;;;;28.03;56.43;100826.22;5056986;28;45656;-78
2023/06/22 10:48:32;;;;;;;;;6.00;5.67;;;;;28.30;56.15;100843.94;5056415;28;45349;-79
2023/06/22 10:50:57;;;;;;;;;5.33;5.00;;;;;28.25;55.91;100812.81;5051367;28;46267;-76
2023/06/22 10:53:23;;;;;;;;;7.67;7.00;;;;;28.28;55.50;100837.75;5051368;28;45557;-75
2023/06/22 10:55:56;;;;;;;;;16.67;16.00;;;;;28.38;55.55;100850.84;5051500;28;45461;-76
2023/06/22 10:58:22;;;;;;;;;37.50;34.00;;;;;28.87;55.39;100854.25;5058507;28;46537;-74
2023/06/22 11:00:47;;;;;;;;;8.33;7.00;;;;;29.28;55.10;100859.75;5054030;28;45461;-79
2023/06/22 11:03:14;;;;;;;;;6.00;5.00;;;;;29.20;51.63;100860.06;5056399;28;45379;-74
2023/06/22 11:05:40;;;;;;;;;5.00;5.00;;;;;29.27;51.82;100855.31;5056386;28;46380;-77
2023/06/22 11:08:09;;;;;;;;;6.00;5.33;;;;;28.99;51.39;100866.31;5059803;28;45332;-80
2023/06/22 11:10:34;;;;;;;;;4.67;4.00;;;;;29.00;51.43;100871.63;5058834;28;45357;-88
2023/06/22 11:13:00;;;;;;;;;5.33;5.00;;;;;29.16;52.11;100826.16;5059281;28;45439;-78
2023/06/22 11:15:26;;;;;;;;;5.00;4.00;;;;;29.62;51.76;100860.94;5060155;28;45343;-80
2023/06/22 11:17:52;;;;;;;;;4.00;4.00;;;;;30.05;49.32;100869.81;5058927;28;45255;-85
2023/06/22 11:20:17;;;;;;;;;4.00;3.33;;;;;30.17;49.70;100845.00;5040352;28;45313;-81
2023/06/22 11:22:43;;;;;;;;;3.00;3.00;;;;;30.71;47.68;100874.78;5039024;28;45359;-85
2023/06/22 11:25:10;;;;;;;;;4.33;4.00;;;;;30.76;47.30;100853.88;5060460;28;45390;-94